sensor_id;sensor_type;location;lat;lon;timestamp;P1;durP1;ratioP1;P2;durP2;ratioP2
33206;SDS011;19565;46.602;11.534;2022-10-16T00:01:10;6.32;;;4.53;;
33206;SDS011;19565;46.602;11.534;2022-10-16T00:03:41;6.35;;;5.15;;
33206;SDS011;19565;46.602;11.534;2022-10-16T00:06:12;4.60;;;3.78;;
33206;SDS011;19565;46.602;11.534;2022-10-16T00:08:41;7.30;;;4.03;;
33206;SDS011;19565;46.602;11.534;2022-10-16T00:11:11;5.40;;;3.75;;
33206;SDS011;19565;46.602;11.534;2022-10-16T00:13:41;3.38;;;2.25;;
33206;SDS011;19565;46.602;11.534;2022-10-16T00:16:11;3.30;;;3.00;;
33206;SDS011;19565;46.602;11.534;2022-10-16T00:18:40;5.32;;;2.60;;
33206;SDS011;19565;46.602;11.534;2022-10-16T00:21:09;6.53;;;3.08;;
33206;SDS011;19565;46.602;11.534;2022-10-16T00:23:41;5.85;;;4.90;;
33206;SDS011;19565;46.602;11.534;2022-10-16T00:26:11;5.55;;;3.28;;
33206;SDS011;19565;46.602;11.534;2022-10-16T00:28:40;4.00;;;2.70;;
33206;SDS011;19565;46.602;11.534;2022-10-16T00:31:09;4.15;;;3.20;;
33206;SDS011;19565;46.602;11.534;2022-10-16T00:33:39;5.32;;;4.80;;
33206;SDS011;19565;46.602;11.534;2022-10-16T00:36:08;2.85;;;2.60;;
33206;SDS011;19565;46.602;11.534;2022-10-16T00:38:38;3.20;;;2.05;;
33206;SDS011;19565;46.602;11.534;2022-10-16T00:41:10;3.80;;;3.50;;
33206;SDS011;19565;46.602;11.534;2022-10-16T00:43:39;4.90;;;3.65;;
33206;SDS011;19565;46.602;11.534;2022-10-16T00:46:11;5.07;;;3.70;;
33206;SDS011;19565;46.602;11.534;2022-10-16T00:48:45;4.38;;;3.65;;
33206;SDS011;19565;46.602;11.534;2022-10-16T00:51:17;4.07;;;3.17;;
33206;SDS011;19565;46.602;11.534;2022-10-16T00:53:49;3.85;;;2.22;;
33206;SDS011;19565;46.602;11.534;2022-10-16T00:56:19;4.78;;;3.40;;
33206;SDS011;19565;46.602;11.534;2022-10-16T00:58:47;4.50;;;3.08;;
33206;SDS011;19565;46.602;11.534;2022-10-16T01:01:15;9.23;;;4.47;;
33206;SDS011;19565;46.602;11.534;2022-10-16T01:03:43;4.28;;;3.90;;
33206;SDS011;19565;46.602;11.534;2022-10-16T01:06:15;5.03;;;4.38;;
33206;SDS011;19565;46.602;11.534;2022-10-16T01:09:01;3.58;;;2.83;;
33206;SDS011;19565;46.602;11.534;2022-10-16T01:11:38;3.10;;;2.78;;
33206;SDS011;19565;46.602;11.534;2022-10-16T01:14:17;4.25;;;3.85;;
33206;SDS011;19565;46.602;11.534;2022-10-16T01:16:52;3.80;;;2.35;;
33206;SDS011;19565;46.602;11.534;2022-10-16T01:19:29;6.72;;;5.28;;
33206;SDS011;19565;46.602;11.534;2022-10-16T01:22:11;4.32;;;2.42;;
33206;SDS011;19565;46.602;11.534;2022-10-16T01:24:41;5.55;;;2.78;;
33206;SDS011;19565;46.602;11.534;2022-10-16T01:27:19;5.22;;;3.60;;
33206;SDS011;19565;46.602;11.534;2022-10-16T01:29:52;2.92;;;2.38;;
33206;SDS011;19565;46.602;11.534;2022-10-16T01:32:23;2.67;;;2.38;;
33206;SDS011;19565;46.602;11.534;2022-10-16T01:34:57;4.38;;;3.90;;
33206;SDS011;19565;46.602;11.534;2022-10-16T01:37:32;4.90;;;3.50;;
33206;SDS011;19565;46.602;11.534;2022-10-16T01:40:05;4.55;;;3.72;;
33206;SDS011;19565;46.602;11.534;2022-10-16T01:42:38;4.97;;;4.40;;
33206;SDS011;19565;46.602;11.534;2022-10-16T01:45:11;4.10;;;3.38;;
33206;SDS011;19565;46.602;11.534;2022-10-16T01:47:41;4.50;;;3.83;;
33206;SDS011;19565;46.602;11.534;2022-10-16T01:50:10;4.65;;;3.90;;
33206;SDS011;19565;46.602;11.534;2022-10-16T01:52:43;3.53;;;2.95;;
33206;SDS011;19565;46.602;11.534;2022-10-16T01:55:16;5.28;;;4.35;;
33206;SDS011;19565;46.602;11.534;2022-10-16T01:57:49;9.10;;;3.28;;
33206;SDS011;19565;46.602;11.534;2022-10-16T02:00:18;5.85;;;3.47;;
33206;SDS011;19565;46.602;11.534;2022-10-16T02:02:49;3.22;;;2.95;;
33206;SDS011;19565;46.602;11.534;2022-10-16T02:05:22;3.55;;;3.25;;
33206;SDS011;19565;46.602;11.534;2022-10-16T02:07:53;5.40;;;3.10;;
33206;SDS011;19565;46.602;11.534;2022-10-16T02:10:25;5.05;;;3.17;;
33206;SDS011;19565;46.602;11.534;2022-10-16T02:13:01;2.15;;;1.95;;
33206;SDS011;19565;46.602;11.534;2022-10-16T02:15:39;3.05;;;2.47;;
33206;SDS011;19565;46.602;11.534;2022-10-16T02:18:07;3.13;;;2.83;;
33206;SDS011;19565;46.602;11.534;2022-10-16T02:20:38;4.25;;;3.85;;
33206;SDS011;19565;46.602;11.534;2022-10-16T02:23:12;7.90;;;4.18;;
33206;SDS011;19565;46.602;11.534;2022-10-16T02:25:46;4.43;;;3.33;;
33206;SDS011;19565;46.602;11.534;2022-10-16T02:28:17;15.60;;;3.50;;
33206;SDS011;19565;46.602;11.534;2022-10-16T02:30:50;5.35;;;3.58;;
33206;SDS011;19565;46.602;11.534;2022-10-16T02:33:22;9.00;;;2.75;;
33206;SDS011;19565;46.602;11.534;2022-10-16T02:35:53;4.03;;;3.17;;
33206;SDS011;19565;46.602;11.534;2022-10-16T02:38:22;3.40;;;3.10;;
33206;SDS011;19565;46.602;11.534;2022-10-16T02:40:51;3.55;;;3.05;;
33206;SDS011;19565;46.602;11.534;2022-10-16T02:43:21;3.30;;;2.72;;
33206;SDS011;19565;46.602;11.534;2022-10-16T02:45:50;14.63;;;4.15;;
33206;SDS011;19565;46.602;11.534;2022-10-16T02:48:18;4.97;;;3.65;;
33206;SDS011;19565;46.602;11.534;2022-10-16T02:50:46;4.93;;;3.53;;
33206;SDS011;19565;46.602;11.534;2022-10-16T02:53:17;6.20;;;5.70;;
33206;SDS011;19565;46.602;11.534;2022-10-16T02:55:45;4.27;;;3.27;;
33206;SDS011;19565;46.602;11.534;2022-10-16T02:58:13;4.00;;;2.93;;
33206;SDS011;19565;46.602;11.534;2022-10-16T03:00:42;9.40;;;4.87;;
33206;SDS011;19565;46.602;11.534;2022-10-16T03:03:10;2.10;;;1.63;;
33206;SDS011;19565;46.602;11.534;2022-10-16T03:05:38;4.87;;;2.47;;
33206;SDS011;19565;46.602;11.534;2022-10-16T03:08:06;5.87;;;3.00;;
33206;SDS011;19565;46.602;11.534;2022-10-16T03:10:34;5.87;;;3.20;;
33206;SDS011;19565;46.602;11.534;2022-10-16T03:13:02;5.03;;;3.07;;
33206;SDS011;19565;46.602;11.534;2022-10-16T03:15:30;5.87;;;4.00;;
33206;SDS011;19565;46.602;11.534;2022-10-16T03:18:00;2.63;;;2.30;;
33206;SDS011;19565;46.602;11.534;2022-10-16T03:20:28;4.63;;;3.00;;
33206;SDS011;19565;46.602;11.534;2022-10-16T03:22:56;3.17;;;2.57;;
33206;SDS011;19565;46.602;11.534;2022-10-16T03:25:24;4.07;;;3.23;;
33206;SDS011;19565;46.602;11.534;2022-10-16T03:27:52;6.13;;;3.97;;
33206;SDS011;19565;46.602;11.534;2022-10-16T03:30:20;7.28;;;4.35;;
33206;SDS011;19565;46.602;11.534;2022-10-16T03:32:48;4.22;;;3.17;;
33206;SDS011;19565;46.602;11.534;2022-10-16T03:35:21;4.75;;;3.15;;
33206;SDS011;19565;46.602;11.534;2022-10-16T03:37:50;4.25;;;2.30;;
33206;SDS011;19565;46.602;11.534;2022-10-16T03:40:18;3.28;;;2.97;;
33206;SDS011;19565;46.602;11.534;2022-10-16T03:42:46;3.42;;;2.47;;
33206;SDS011;19565;46.602;11.534;2022-10-16T03:45:14;4.10;;;2.58;;
33206;SDS011;19565;46.602;11.534;2022-10-16T03:47:42;5.40;;;4.55;;
33206;SDS011;19565;46.602;11.534;2022-10-16T03:50:10;2.63;;;2.42;;
33206;SDS011;19565;46.602;11.534;2022-10-16T03:52:39;4.70;;;2.85;;
33206;SDS011;19565;46.602;11.534;2022-10-16T03:55:08;9.20;;;3.53;;
33206;SDS011;19565;46.602;11.534;2022-10-16T03:57:36;6.07;;;4.93;;
33206;SDS011;19565;46.602;11.534;2022-10-16T04:00:04;5.25;;;3.05;;
33206;SDS011;19565;46.602;11.534;2022-10-16T04:02:33;3.35;;;2.13;;
33206;SDS011;19565;46.602;11.534;2022-10-16T04:05:01;8.23;;;3.25;;
33206;SDS011;19565;46.602;11.534;2022-10-16T04:07:29;4.68;;;2.97;;
33206;SDS011;19565;46.602;11.534;2022-10-16T04:09:59;3.15;;;2.72;;
33206;SDS011;19565;46.602;11.534;2022-10-16T04:12:26;4.95;;;4.50;;
33206;SDS011;19565;46.602;11.534;2022-10-16T04:14:54;3.55;;;2.53;;
33206;SDS011;19565;46.602;11.534;2022-10-16T04:17:22;3.53;;;3.15;;
33206;SDS011;19565;46.602;11.534;2022-10-16T04:19:51;4.53;;;2.80;;
33206;SDS011;19565;46.602;11.534;2022-10-16T04:22:19;4.47;;;3.70;;
33206;SDS011;19565;46.602;11.534;2022-10-16T04:24:47;4.75;;;3.17;;
33206;SDS011;19565;46.602;11.534;2022-10-16T04:27:16;4.38;;;2.78;;
33206;SDS011;19565;46.602;11.534;2022-10-16T04:29:46;3.15;;;2.58;;
33206;SDS011;19565;46.602;11.534;2022-10-16T04:32:14;3.10;;;1.77;;
33206;SDS011;19565;46.602;11.534;2022-10-16T04:34:42;2.50;;;2.30;;
33206;SDS011;19565;46.602;11.534;2022-10-16T04:37:10;3.95;;;3.33;;
33206;SDS011;19565;46.602;11.534;2022-10-16T04:39:38;8.57;;;5.07;;
33206;SDS011;19565;46.602;11.534;2022-10-16T04:42:06;2.33;;;1.52;;
33206;SDS011;19565;46.602;11.534;2022-10-16T04:44:35;2.92;;;2.72;;
33206;SDS011;19565;46.602;11.534;2022-10-16T04:47:03;3.25;;;2.25;;
33206;SDS011;19565;46.602;11.534;2022-10-16T04:49:31;2.22;;;2.03;;
33206;SDS011;19565;46.602;11.534;2022-10-16T04:51:59;3.78;;;2.70;;
33206;SDS011;19565;46.602;11.534;2022-10-16T04:54:27;3.80;;;2.35;;
33206;SDS011;19565;46.602;11.534;2022-10-16T04:56:55;3.95;;;2.83;;
33206;SDS011;19565;46.602;11.534;2022-10-16T04:59:23;4.65;;;3.25;;
33206;SDS011;19565;46.602;11.534;2022-10-16T05:01:53;1.77;;;1.67;;
33206;SDS011;19565;46.602;11.534;2022-10-16T05:04:21;5.05;;;3.38;;
33206;SDS011;19565;46.602;11.534;2022-10-16T05:06:49;4.93;;;2.03;;
33206;SDS011;19565;46.602;11.534;2022-10-16T05:09:17;4.18;;;3.00;;
33206;SDS011;19565;46.602;11.534;2022-10-16T05:11:47;3.03;;;2.75;;
33206;SDS011;19565;46.602;11.534;2022-10-16T05:14:15;4.13;;;2.47;;
33206;SDS011;19565;46.602;11.534;2022-10-16T05:16:43;4.22;;;2.90;;
33206;SDS011;19565;46.602;11.534;2022-10-16T05:19:15;4.22;;;3.83;;
33206;SDS011;19565;46.602;11.534;2022-10-16T05:21:58;3.97;;;3.20;;
33206;SDS011;19565;46.602;11.534;2022-10-16T05:24:27;5.78;;;3.45;;
33206;SDS011;19565;46.602;11.534;2022-10-16T05:26:55;3.05;;;2.80;;
33206;SDS011;19565;46.602;11.534;2022-10-16T05:29:23;3.47;;;3.17;;
33206;SDS011;19565;46.602;11.534;2022-10-16T05:31:51;3.10;;;2.72;;
33206;SDS011;19565;46.602;11.534;2022-10-16T05:34:21;18.33;;;3.42;;
33206;SDS011;19565;46.602;11.534;2022-10-16T05:36:49;3.55;;;3.20;;
33206;SDS011;19565;46.602;11.534;2022-10-16T05:39:17;4.53;;;3.42;;
33206;SDS011;19565;46.602;11.534;2022-10-16T05:41:45;2.67;;;2.42;;
33206;SDS011;19565;46.602;11.534;2022-10-16T05:44:13;12.90;;;3.28;;
33206;SDS011;19565;46.602;11.534;2022-10-16T05:46:42;2.72;;;2.28;;
33206;SDS011;19565;46.602;11.534;2022-10-16T05:49:10;2.83;;;2.53;;
33206;SDS011;19565;46.602;11.534;2022-10-16T05:51:39;4.32;;;3.30;;
33206;SDS011;19565;46.602;11.534;2022-10-16T05:54:08;2.90;;;2.20;;
33206;SDS011;19565;46.602;11.534;2022-10-16T05:56:36;5.97;;;3.55;;
33206;SDS011;19565;46.602;11.534;2022-10-16T05:59:04;3.60;;;3.35;;
33206;SDS011;19565;46.602;11.534;2022-10-16T06:01:33;4.70;;;3.63;;
33206;SDS011;19565;46.602;11.534;2022-10-16T06:04:01;2.17;;;2.03;;
33206;SDS011;19565;46.602;11.534;2022-10-16T06:06:29;3.13;;;2.17;;
33206;SDS011;19565;46.602;11.534;2022-10-16T06:08:59;3.65;;;3.35;;
33206;SDS011;19565;46.602;11.534;2022-10-16T06:11:27;8.73;;;2.30;;
33206;SDS011;19565;46.602;11.534;2022-10-16T06:13:57;2.95;;;2.38;;
33206;SDS011;19565;46.602;11.534;2022-10-16T06:16:28;4.80;;;3.72;;
33206;SDS011;19565;46.602;11.534;2022-10-16T06:18:56;3.70;;;3.05;;
33206;SDS011;19565;46.602;11.534;2022-10-16T06:21:26;4.15;;;3.75;;
33206;SDS011;19565;46.602;11.534;2022-10-16T06:23:55;4.10;;;3.67;;
33206;SDS011;19565;46.602;11.534;2022-10-16T06:26:26;4.20;;;2.63;;
33206;SDS011;19565;46.602;11.534;2022-10-16T06:28:55;3.00;;;2.53;;
33206;SDS011;19565;46.602;11.534;2022-10-16T06:31:25;2.83;;;2.13;;
33206;SDS011;19565;46.602;11.534;2022-10-16T06:33:55;4.38;;;3.38;;
33206;SDS011;19565;46.602;11.534;2022-10-16T06:36:26;1.80;;;1.40;;
33206;SDS011;19565;46.602;11.534;2022-10-16T06:38:54;2.72;;;2.53;;
33206;SDS011;19565;46.602;11.534;2022-10-16T06:41:22;3.88;;;2.83;;
33206;SDS011;19565;46.602;11.534;2022-10-16T06:43:52;4.07;;;3.03;;
33206;SDS011;19565;46.602;11.534;2022-10-16T06:46:20;3.60;;;2.83;;
33206;SDS011;19565;46.602;11.534;2022-10-16T06:48:49;2.53;;;2.30;;
33206;SDS011;19565;46.602;11.534;2022-10-16T06:51:18;4.82;;;1.85;;
33206;SDS011;19565;46.602;11.534;2022-10-16T06:53:48;3.60;;;2.35;;
33206;SDS011;19565;46.602;11.534;2022-10-16T06:56:33;4.00;;;2.88;;
33206;SDS011;19565;46.602;11.534;2022-10-16T06:59:03;6.88;;;4.55;;
33206;SDS011;19565;46.602;11.534;2022-10-16T07:01:31;3.22;;;2.80;;
33206;SDS011;19565;46.602;11.534;2022-10-16T07:04:00;4.45;;;3.30;;
33206;SDS011;19565;46.602;11.534;2022-10-16T07:06:30;4.20;;;3.67;;
33206;SDS011;19565;46.602;11.534;2022-10-16T07:09:00;1.98;;;1.73;;
33206;SDS011;19565;46.602;11.534;2022-10-16T07:11:30;2.30;;;2.10;;
33206;SDS011;19565;46.602;11.534;2022-10-16T07:13:58;3.45;;;3.10;;
33206;SDS011;19565;46.602;11.534;2022-10-16T07:16:29;4.20;;;2.63;;
33206;SDS011;19565;46.602;11.534;2022-10-16T07:18:58;2.95;;;2.45;;
33206;SDS011;19565;46.602;11.534;2022-10-16T07:21:28;8.18;;;3.92;;
33206;SDS011;19565;46.602;11.534;2022-10-16T07:24:02;3.67;;;3.30;;
33206;SDS011;19565;46.602;11.534;2022-10-16T07:26:32;3.20;;;2.97;;
33206;SDS011;19565;46.602;11.534;2022-10-16T07:29:01;3.17;;;2.97;;
33206;SDS011;19565;46.602;11.534;2022-10-16T07:31:32;5.65;;;3.78;;
33206;SDS011;19565;46.602;11.534;2022-10-16T07:34:00;5.10;;;3.92;;
33206;SDS011;19565;46.602;11.534;2022-10-16T07:36:28;7.80;;;4.57;;
33206;SDS011;19565;46.602;11.534;2022-10-16T07:38:56;2.60;;;2.35;;
33206;SDS011;19565;46.602;11.534;2022-10-16T07:41:25;5.32;;;3.63;;
33206;SDS011;19565;46.602;11.534;2022-10-16T07:43:54;3.42;;;2.47;;
33206;SDS011;19565;46.602;11.534;2022-10-16T07:46:26;2.88;;;2.40;;
33206;SDS011;19565;46.602;11.534;2022-10-16T07:48:56;4.22;;;3.45;;
33206;SDS011;19565;46.602;11.534;2022-10-16T07:51:25;2.83;;;2.40;;
33206;SDS011;19565;46.602;11.534;2022-10-16T07:53:53;6.63;;;4.13;;
33206;SDS011;19565;46.602;11.534;2022-10-16T07:56:22;4.25;;;2.83;;
33206;SDS011;19565;46.602;11.534;2022-10-16T07:58:50;7.55;;;4.93;;
33206;SDS011;19565;46.602;11.534;2022-10-16T08:01:19;7.32;;;4.78;;
33206;SDS011;19565;46.602;11.534;2022-10-16T08:03:47;4.63;;;3.45;;
33206;SDS011;19565;46.602;11.534;2022-10-16T08:06:19;3.88;;;3.55;;
33206;SDS011;19565;46.602;11.534;2022-10-16T08:08:53;3.97;;;3.53;;
33206;SDS011;19565;46.602;11.534;2022-10-16T08:11:21;6.63;;;4.90;;
33206;SDS011;19565;46.602;11.534;2022-10-16T08:13:50;5.60;;;4.25;;
33206;SDS011;19565;46.602;11.534;2022-10-16T08:16:18;4.38;;;3.72;;
33206;SDS011;19565;46.602;11.534;2022-10-16T08:18:46;5.82;;;4.35;;
33206;SDS011;19565;46.602;11.534;2022-10-16T08:21:15;5.82;;;2.83;;
33206;SDS011;19565;46.602;11.534;2022-10-16T08:23:48;4.85;;;3.65;;
33206;SDS011;19565;46.602;11.534;2022-10-16T08:26:23;4.82;;;4.38;;
33206;SDS011;19565;46.602;11.534;2022-10-16T08:28:51;6.25;;;3.42;;
33206;SDS011;19565;46.602;11.534;2022-10-16T08:31:20;5.03;;;3.42;;
33206;SDS011;19565;46.602;11.534;2022-10-16T08:33:49;4.57;;;4.00;;
33206;SDS011;19565;46.602;11.534;2022-10-16T08:36:18;6.38;;;5.00;;
33206;SDS011;19565;46.602;11.534;2022-10-16T08:38:49;9.45;;;4.68;;
33206;SDS011;19565;46.602;11.534;2022-10-16T08:41:33;3.80;;;3.33;;
33206;SDS011;19565;46.602;11.534;2022-10-16T08:47:39;9.32;;;4.70;;
33206;SDS011;19565;46.602;11.534;2022-10-16T08:50:18;3.13;;;2.58;;
33206;SDS011;19565;46.602;11.534;2022-10-16T08:52:51;2.45;;;2.30;;
33206;SDS011;19565;46.602;11.534;2022-10-16T08:55:29;2.83;;;2.50;;
33206;SDS011;19565;46.602;11.534;2022-10-16T08:58:00;4.68;;;3.00;;
33206;SDS011;19565;46.602;11.534;2022-10-16T09:00:28;4.07;;;3.50;;
33206;SDS011;19565;46.602;11.534;2022-10-16T09:02:59;4.50;;;4.10;;
33206;SDS011;19565;46.602;11.534;2022-10-16T09:05:43;3.25;;;2.92;;
33206;SDS011;19565;46.602;11.534;2022-10-16T09:08:51;3.88;;;3.38;;
33206;SDS011;19565;46.602;11.534;2022-10-16T09:11:35;3.67;;;3.38;;
33206;SDS011;19565;46.602;11.534;2022-10-16T09:14:31;2.75;;;2.65;;
33206;SDS011;19565;46.602;11.534;2022-10-16T09:17:12;3.63;;;3.35;;
33206;SDS011;19565;46.602;11.534;2022-10-16T09:19:51;3.72;;;3.50;;
33206;SDS011;19565;46.602;11.534;2022-10-16T09:22:25;4.80;;;4.40;;
33206;SDS011;19565;46.602;11.534;2022-10-16T09:24:55;4.53;;;4.05;;
33206;SDS011;19565;46.602;11.534;2022-10-16T09:27:29;5.38;;;4.88;;
33206;SDS011;19565;46.602;11.534;2022-10-16T09:29:57;4.18;;;3.88;;
33206;SDS011;19565;46.602;11.534;2022-10-16T09:32:25;3.92;;;3.63;;
33206;SDS011;19565;46.602;11.534;2022-10-16T09:34:55;4.88;;;4.47;;
33206;SDS011;19565;46.602;11.534;2022-10-16T09:37:23;5.05;;;4.60;;
33206;SDS011;19565;46.602;11.534;2022-10-16T09:39:53;5.40;;;4.05;;
33206;SDS011;19565;46.602;11.534;2022-10-16T09:42:24;6.28;;;5.72;;
33206;SDS011;19565;46.602;11.534;2022-10-16T09:44:56;4.70;;;4.30;;
33206;SDS011;19565;46.602;11.534;2022-10-16T09:47:25;4.15;;;3.85;;
33206;SDS011;19565;46.602;11.534;2022-10-16T09:49:55;4.85;;;4.45;;
33206;SDS011;19565;46.602;11.534;2022-10-16T09:52:28;5.47;;;5.00;;
33206;SDS011;19565;46.602;11.534;2022-10-16T09:54:57;5.35;;;4.75;;
33206;SDS011;19565;46.602;11.534;2022-10-16T09:57:27;4.38;;;3.95;;
33206;SDS011;19565;46.602;11.534;2022-10-16T09:59:58;5.63;;;5.13;;
33206;SDS011;19565;46.602;11.534;2022-10-16T10:02:28;6.85;;;5.47;;
33206;SDS011;19565;46.602;11.534;2022-10-16T10:05:00;5.95;;;4.50;;
33206;SDS011;19565;46.602;11.534;2022-10-16T10:07:30;5.13;;;4.72;;
33206;SDS011;19565;46.602;11.534;2022-10-16T10:10:01;4.50;;;4.20;;
33206;SDS011;19565;46.602;11.534;2022-10-16T10:12:32;6.47;;;5.88;;
33206;SDS011;19565;46.602;11.534;2022-10-16T10:15:06;5.15;;;4.75;;
33206;SDS011;19565;46.602;11.534;2022-10-16T10:17:45;8.57;;;6.72;;
33206;SDS011;19565;46.602;11.534;2022-10-16T10:20:22;8.45;;;7.78;;
33206;SDS011;19565;46.602;11.534;2022-10-16T10:22:51;10.95;;;10.15;;
33206;SDS011;19565;46.602;11.534;2022-10-16T10:25:23;14.15;;;13.02;;
33206;SDS011;19565;46.602;11.534;2022-10-16T10:28:06;16.02;;;14.52;;
33206;SDS011;19565;46.602;11.534;2022-10-16T10:30:49;15.07;;;14.07;;
33206;SDS011;19565;46.602;11.534;2022-10-16T10:33:25;14.93;;;14.13;;
33206;SDS011;19565;46.602;11.534;2022-10-16T10:36:01;16.13;;;15.13;;
33206;SDS011;19565;46.602;11.534;2022-10-16T10:38:39;14.77;;;13.98;;
33206;SDS011;19565;46.602;11.534;2022-10-16T10:41:27;16.83;;;15.93;;
33206;SDS011;19565;46.602;11.534;2022-10-16T10:44:21;16.92;;;16.08;;
33206;SDS011;19565;46.602;11.534;2022-10-16T10:46:57;17.35;;;16.45;;
33206;SDS011;19565;46.602;11.534;2022-10-16T10:49:37;17.80;;;16.65;;
33206;SDS011;19565;46.602;11.534;2022-10-16T10:52:22;18.98;;;17.77;;
33206;SDS011;19565;46.602;11.534;2022-10-16T10:55:06;19.48;;;18.35;;
33206;SDS011;19565;46.602;11.534;2022-10-16T10:57:43;17.70;;;16.80;;
33206;SDS011;19565;46.602;11.534;2022-10-16T11:00:20;18.20;;;17.30;;
33206;SDS011;19565;46.602;11.534;2022-10-16T11:02:57;20.20;;;18.90;;
33206;SDS011;19565;46.602;11.534;2022-10-16T11:05:39;19.23;;;18.00;;
33206;SDS011;19565;46.602;11.534;2022-10-16T11:08:10;18.60;;;17.60;;
33206;SDS011;19565;46.602;11.534;2022-10-16T11:10:45;19.10;;;18.00;;
33206;SDS011;19565;46.602;11.534;2022-10-16T11:13:19;19.90;;;18.77;;
33206;SDS011;19565;46.602;11.534;2022-10-16T11:15:52;19.08;;;18.08;;
33206;SDS011;19565;46.602;11.534;2022-10-16T11:18:27;19.60;;;18.48;;
33206;SDS011;19565;46.602;11.534;2022-10-16T11:21:02;18.80;;;17.80;;
33206;SDS011;19565;46.602;11.534;2022-10-16T11:23:35;19.17;;;18.17;;
33206;SDS011;19565;46.602;11.534;2022-10-16T11:26:11;19.75;;;18.30;;
33206;SDS011;19565;46.602;11.534;2022-10-16T11:28:47;18.58;;;17.58;;
33206;SDS011;19565;46.602;11.534;2022-10-16T11:31:19;18.55;;;17.55;;
33206;SDS011;19565;46.602;11.534;2022-10-16T11:33:59;19.55;;;18.45;;
33206;SDS011;19565;46.602;11.534;2022-10-16T11:36:34;20.95;;;19.65;;
33206;SDS011;19565;46.602;11.534;2022-10-16T11:39:09;19.05;;;17.92;;
33206;SDS011;19565;46.602;11.534;2022-10-16T11:41:47;19.00;;;17.85;;
33206;SDS011;19565;46.602;11.534;2022-10-16T11:44:25;19.17;;;18.17;;
33206;SDS011;19565;46.602;11.534;2022-10-16T11:47:05;19.52;;;18.42;;
33206;SDS011;19565;46.602;11.534;2022-10-16T11:50:02;19.38;;;18.20;;
33206;SDS011;19565;46.602;11.534;2022-10-16T11:52:50;19.63;;;18.52;;
33206;SDS011;19565;46.602;11.534;2022-10-16T11:55:23;19.02;;;18.02;;
33206;SDS011;19565;46.602;11.534;2022-10-16T11:57:58;19.60;;;18.30;;
33206;SDS011;19565;46.602;11.534;2022-10-16T12:00:33;37.40;;;35.70;;
33206;SDS011;19565;46.602;11.534;2022-10-16T12:03:10;37.88;;;36.00;;
33206;SDS011;19565;46.602;11.534;2022-10-16T12:05:52;38.55;;;36.72;;
33206;SDS011;19565;46.602;11.534;2022-10-16T12:08:26;39.40;;;37.40;;
33206;SDS011;19565;46.602;11.534;2022-10-16T12:11:05;39.08;;;37.15;;
33206;SDS011;19565;46.602;11.534;2022-10-16T12:13:35;39.75;;;37.70;;
33206;SDS011;19565;46.602;11.534;2022-10-16T12:16:19;37.83;;;36.13;;
33206;SDS011;19565;46.602;11.534;2022-10-16T12:18:49;40.30;;;38.50;;
33206;SDS011;19565;46.602;11.534;2022-10-16T12:21:38;40.42;;;38.60;;
33206;SDS011;19565;46.602;11.534;2022-10-16T12:24:06;39.63;;;37.83;;
33206;SDS011;19565;46.602;11.534;2022-10-16T12:26:49;43.67;;;41.58;;
33206;SDS011;19565;46.602;11.534;2022-10-16T12:29:22;41.70;;;39.80;;
33206;SDS011;19565;46.602;11.534;2022-10-16T12:31:57;41.10;;;39.20;;
33206;SDS011;19565;46.602;11.534;2022-10-16T12:34:26;42.70;;;40.80;;
33206;SDS011;19565;46.602;11.534;2022-10-16T12:37:08;46.45;;;44.35;;
33206;SDS011;19565;46.602;11.534;2022-10-16T12:39:40;47.20;;;45.10;;
33206;SDS011;19565;46.602;11.534;2022-10-16T12:45:02;44.03;;;42.03;;
33206;SDS011;19565;46.602;11.534;2022-10-16T12:47:51;43.08;;;41.13;;
33206;SDS011;19565;46.602;11.534;2022-10-16T12:50:28;40.67;;;38.85;;
33206;SDS011;19565;46.602;11.534;2022-10-16T12:53:01;19.90;;;18.75;;
33206;SDS011;19565;46.602;11.534;2022-10-16T12:55:33;19.10;;;18.10;;
33206;SDS011;19565;46.602;11.534;2022-10-16T12:58:18;19.73;;;18.73;;
33206;SDS011;19565;46.602;11.534;2022-10-16T13:01:04;19.23;;;18.20;;
33206;SDS011;19565;46.602;11.534;2022-10-16T13:04:03;19.58;;;18.58;;
33206;SDS011;19565;46.602;11.534;2022-10-16T13:06:50;18.85;;;17.85;;
33206;SDS011;19565;46.602;11.534;2022-10-16T13:09:30;19.65;;;18.60;;
33206;SDS011;19565;46.602;11.534;2022-10-16T13:12:11;20.17;;;19.05;;
33206;SDS011;19565;46.602;11.534;2022-10-16T13:14:55;19.55;;;18.25;;
33206;SDS011;19565;46.602;11.534;2022-10-16T13:17:45;18.98;;;17.98;;
33206;SDS011;19565;46.602;11.534;2022-10-16T13:20:21;18.92;;;17.92;;
33206;SDS011;19565;46.602;11.534;2022-10-16T13:23:00;20.33;;;19.17;;
33206;SDS011;19565;46.602;11.534;2022-10-16T13:25:40;19.48;;;18.30;;
33206;SDS011;19565;46.602;11.534;2022-10-16T13:28:19;20.05;;;18.95;;
33206;SDS011;19565;46.602;11.534;2022-10-16T13:30:51;19.85;;;18.83;;
33206;SDS011;19565;46.602;11.534;2022-10-16T13:33:21;19.30;;;18.27;;
33206;SDS011;19565;46.602;11.534;2022-10-16T13:35:56;18.85;;;17.83;;
33206;SDS011;19565;46.602;11.534;2022-10-16T13:38:25;19.48;;;18.48;;
33206;SDS011;19565;46.602;11.534;2022-10-16T13:40:56;20.63;;;19.52;;
33206;SDS011;19565;46.602;11.534;2022-10-16T13:43:27;19.65;;;18.48;;
33206;SDS011;19565;46.602;11.534;2022-10-16T13:46:00;18.90;;;17.92;;
33206;SDS011;19565;46.602;11.534;2022-10-16T13:48:30;18.92;;;17.98;;
33206;SDS011;19565;46.602;11.534;2022-10-16T13:51:03;19.38;;;18.25;;
33206;SDS011;19565;46.602;11.534;2022-10-16T13:53:33;18.63;;;17.60;;
33206;SDS011;19565;46.602;11.534;2022-10-16T13:56:05;18.55;;;17.52;;
33206;SDS011;19565;46.602;11.534;2022-10-16T13:58:35;18.48;;;17.48;;
33206;SDS011;19565;46.602;11.534;2022-10-16T14:01:04;20.80;;;19.60;;
33206;SDS011;19565;46.602;11.534;2022-10-16T14:03:33;19.85;;;18.67;;
33206;SDS011;19565;46.602;11.534;2022-10-16T14:06:03;18.45;;;17.45;;
33206;SDS011;19565;46.602;11.534;2022-10-16T14:08:35;19.52;;;18.42;;
33206;SDS011;19565;46.602;11.534;2022-10-16T14:11:04;18.98;;;18.02;;
33206;SDS011;19565;46.602;11.534;2022-10-16T14:13:33;18.92;;;17.83;;
33206;SDS011;19565;46.602;11.534;2022-10-16T14:16:05;20.50;;;19.40;;
33206;SDS011;19565;46.602;11.534;2022-10-16T14:18:35;19.80;;;18.63;;
33206;SDS011;19565;46.602;11.534;2022-10-16T14:21:06;19.98;;;18.75;;
33206;SDS011;19565;46.602;11.534;2022-10-16T14:23:39;17.98;;;17.08;;
33206;SDS011;19565;46.602;11.534;2022-10-16T14:26:14;20.02;;;18.92;;
33206;SDS011;19565;46.602;11.534;2022-10-16T14:28:44;19.40;;;18.40;;
33206;SDS011;19565;46.602;11.534;2022-10-16T14:31:23;20.02;;;18.92;;
33206;SDS011;19565;46.602;11.534;2022-10-16T14:33:54;18.70;;;17.60;;
33206;SDS011;19565;46.602;11.534;2022-10-16T14:36:22;19.17;;;18.10;;
33206;SDS011;19565;46.602;11.534;2022-10-16T14:39:02;21.85;;;20.33;;
33206;SDS011;19565;46.602;11.534;2022-10-16T14:41:35;19.02;;;17.50;;
33206;SDS011;19565;46.602;11.534;2022-10-16T14:44:11;18.42;;;17.42;;
33206;SDS011;19565;46.602;11.534;2022-10-16T14:46:40;19.15;;;18.15;;
33206;SDS011;19565;46.602;11.534;2022-10-16T14:49:13;20.63;;;19.38;;
33206;SDS011;19565;46.602;11.534;2022-10-16T14:51:46;18.50;;;17.50;;
33206;SDS011;19565;46.602;11.534;2022-10-16T14:54:15;19.02;;;17.92;;
33206;SDS011;19565;46.602;11.534;2022-10-16T14:56:46;18.70;;;17.70;;
33206;SDS011;19565;46.602;11.534;2022-10-16T14:59:17;18.42;;;17.42;;
33206;SDS011;19565;46.602;11.534;2022-10-16T15:01:50;19.63;;;18.48;;